createdAt,value
2023-08-11T00:01:06.564Z,34.78
2023-08-11T00:03:35.746Z,33.10
2023-08-11T00:06:02.735Z,35.40
2023-08-11T00:08:29.909Z,33.05
2023-08-11T00:10:57.003Z,33.90
2023-08-11T00:13:24.182Z,32.50
2023-08-11T00:15:51.124Z,34.83
2023-08-11T00:18:18.411Z,35.95
2023-08-11T00:20:46.501Z,38.05
2023-08-11T00:23:13.726Z,35.27
2023-08-11T00:25:40.639Z,33.35
2023-08-11T00:28:07.900Z,39.20
2023-08-11T00:30:34.875Z,32.45
2023-08-11T00:33:02.126Z,35.55
2023-08-11T00:35:29.441Z,33.13
2023-08-11T00:37:56.980Z,34.53
2023-08-11T00:40:25.052Z,30.75
2023-08-11T00:42:52.266Z,32.07
2023-08-11T00:45:19.877Z,32.05
2023-08-11T00:47:47.584Z,31.48
2023-08-11T00:50:17.278Z,32.00
2023-08-11T00:52:46.926Z,30.92
2023-08-11T00:55:15.349Z,34.88
2023-08-11T00:57:43.753Z,28.83
2023-08-11T01:00:14.796Z,27.42
2023-08-11T01:02:44.128Z,30.73
2023-08-11T01:05:13.358Z,34.67
2023-08-11T01:07:50.546Z,33.15
2023-08-11T01:10:34.466Z,33.00
2023-08-11T01:13:16.688Z,27.42
2023-08-11T01:15:51.317Z,30.35
2023-08-11T01:18:20.806Z,29.13
2023-08-11T01:23:21.270Z,23.85
2023-08-11T01:25:49.550Z,25.52
2023-08-11T01:28:16.787Z,25.83
2023-08-11T01:30:45.899Z,32.03
2023-08-11T01:33:13.092Z,26.17
2023-08-11T01:35:42.103Z,26.45
2023-08-11T01:38:10.879Z,26.40
2023-08-11T01:40:39.351Z,28.07
2023-08-11T01:43:08.766Z,27.13
2023-08-11T01:45:35.779Z,27.23
2023-08-11T01:48:04.900Z,32.08
2023-08-11T01:50:33.447Z,27.88
2023-08-11T01:53:00.744Z,26.05
2023-08-11T01:55:30.242Z,24.08
2023-08-11T01:57:59.783Z,25.98
2023-08-11T02:00:28.713Z,24.00
2023-08-11T02:02:57.591Z,22.83
2023-08-11T02:05:26.627Z,22.75
2023-08-11T02:07:54.812Z,26.60
2023-08-11T02:10:22.093Z,24.05
2023-08-11T02:12:49.466Z,23.08
2023-08-11T02:15:16.499Z,24.77
2023-08-11T02:17:43.874Z,25.85
2023-08-11T02:20:24.808Z,25.80
2023-08-11T02:22:52.655Z,22.13
2023-08-11T02:25:19.988Z,24.05
2023-08-11T02:27:46.984Z,23.27
2023-08-11T02:30:15.886Z,23.08
2023-08-11T02:32:43.410Z,21.52
2023-08-11T02:35:11.928Z,25.60
2023-08-11T02:37:39.008Z,26.65
2023-08-11T02:40:10.126Z,25.45
2023-08-11T02:42:39.678Z,25.00
2023-08-11T02:45:10.692Z,21.83
2023-08-11T02:47:38.921Z,22.60
2023-08-11T02:50:06.842Z,21.67
2023-08-11T02:52:34.176Z,21.88
2023-08-11T02:55:01.812Z,20.13
2023-08-11T02:57:28.789Z,23.02
2023-08-11T02:59:56.059Z,17.25
2023-08-11T03:02:22.975Z,22.42
2023-08-11T03:04:50.431Z,21.80
2023-08-11T03:07:18.222Z,20.25
2023-08-11T03:09:45.438Z,18.17
2023-08-11T03:12:12.317Z,21.88
2023-08-11T03:14:39.645Z,20.23
2023-08-11T03:17:06.713Z,24.27
2023-08-11T03:19:34.308Z,23.45
2023-08-11T03:22:01.212Z,21.25
2023-08-11T03:24:28.404Z,23.65
2023-08-11T03:26:55.417Z,23.30
2023-08-11T03:29:22.649Z,25.08
2023-08-11T03:31:49.527Z,21.60
2023-08-11T03:34:16.777Z,21.55
2023-08-11T03:36:45.549Z,23.05
2023-08-11T03:39:12.741Z,23.13
2023-08-11T03:41:39.688Z,24.80
2023-08-11T03:44:07.082Z,23.35
2023-08-11T03:46:34.189Z,22.50
2023-08-11T03:49:01.426Z,20.40
2023-08-11T03:51:28.425Z,24.83
2023-08-11T03:53:55.704Z,20.63
2023-08-11T03:56:22.660Z,19.88
2023-08-11T03:58:49.854Z,18.20
2023-08-11T04:01:16.763Z,17.98
2023-08-11T04:03:44.054Z,18.40
2023-08-11T04:06:11.347Z,17.15
2023-08-11T04:08:38.564Z,18.15
2023-08-11T04:11:05.528Z,20.92
2023-08-11T04:13:32.801Z,17.90
2023-08-11T04:16:00.583Z,16.48
2023-08-11T04:18:27.847Z,15.85
2023-08-11T04:20:54.841Z,16.48
2023-08-11T04:23:22.190Z,19.77
2023-08-11T04:25:49.215Z,18.13
2023-08-11T04:28:16.457Z,14.40
2023-08-11T04:30:43.474Z,14.27
2023-08-11T04:33:10.725Z,13.60
2023-08-11T04:35:39.296Z,14.48
2023-08-11T04:38:06.494Z,15.63
2023-08-11T04:40:34.529Z,15.35
2023-08-11T04:43:01.770Z,16.40
2023-08-11T04:45:29.538Z,13.68
2023-08-11T04:47:56.790Z,12.32
2023-08-11T04:50:24.303Z,12.88
2023-08-11T04:52:51.489Z,10.25
2023-08-11T04:55:18.829Z,11.15
2023-08-11T04:57:46.045Z,9.70
2023-08-11T05:00:18.618Z,10.63
2023-08-11T05:02:46.651Z,10.07
2023-08-11T05:05:15.299Z,10.63
2023-08-11T05:07:42.984Z,12.35
2023-08-11T05:10:10.293Z,10.90
2023-08-11T05:12:37.717Z,7.18
2023-08-11T05:15:05.245Z,11.13
2023-08-11T05:17:33.252Z,6.13
2023-08-11T05:20:00.384Z,5.65
2023-08-11T05:22:27.718Z,11.30
2023-08-11T05:24:54.706Z,6.63
2023-08-11T05:27:21.966Z,10.40
2023-08-11T05:29:49.568Z,6.15
2023-08-11T05:32:16.949Z,8.25
2023-08-11T05:34:43.978Z,8.13
2023-08-11T05:37:11.609Z,6.75
2023-08-11T05:39:40.521Z,6.45
2023-08-11T05:42:08.404Z,9.90
2023-08-11T05:44:36.218Z,6.78
2023-08-11T05:47:04.238Z,6.38
2023-08-11T05:49:31.410Z,5.60
2023-08-11T05:51:58.945Z,4.53
2023-08-11T05:54:26.200Z,7.78
2023-08-11T05:56:55.540Z,6.93
2023-08-11T06:01:50.613Z,4.47
2023-08-11T06:04:17.862Z,5.00
2023-08-11T06:06:45.125Z,5.47
2023-08-11T06:09:12.207Z,6.13
2023-08-11T06:11:39.674Z,3.92
2023-08-11T06:14:06.668Z,4.15
2023-08-11T06:16:33.889Z,4.03
2023-08-11T06:19:00.884Z,4.53
2023-08-11T06:21:28.590Z,3.40
2023-08-11T06:23:55.538Z,3.45
2023-08-11T06:26:24.215Z,5.68
2023-08-11T06:28:51.313Z,4.07
2023-08-11T06:31:23.166Z,4.22
2023-08-11T06:33:50.975Z,4.57
2023-08-11T06:36:18.379Z,3.73
2023-08-11T06:38:46.575Z,6.78
2023-08-11T06:41:13.790Z,6.18
2023-08-11T06:43:40.958Z,4.28
2023-08-11T06:46:08.427Z,4.00
2023-08-11T06:48:35.587Z,3.92
2023-08-11T06:51:03.474Z,6.50
2023-08-11T06:53:30.550Z,5.63
2023-08-11T06:55:57.873Z,4.70
2023-08-11T06:58:26.560Z,4.82
2023-08-11T07:00:55.840Z,4.05
2023-08-11T07:03:22.838Z,3.65
2023-08-11T07:05:52.812Z,6.22
2023-08-11T07:08:20.562Z,4.00
2023-08-11T07:10:48.333Z,3.45
2023-08-11T07:13:15.273Z,6.55
2023-08-11T07:15:43.880Z,3.17
2023-08-11T07:18:11.940Z,4.15
2023-08-11T07:20:45.374Z,2.90
2023-08-11T07:23:12.427Z,5.88
2023-08-11T07:25:39.614Z,2.92
2023-08-11T07:28:06.746Z,4.13
2023-08-11T07:30:33.938Z,3.67
2023-08-11T07:33:02.116Z,3.17
2023-08-11T07:35:30.116Z,4.70
2023-08-11T07:37:57.024Z,3.07
2023-08-11T07:40:24.338Z,2.50
2023-08-11T07:42:51.244Z,2.72
2023-08-11T07:45:18.492Z,2.53
2023-08-11T07:47:45.610Z,2.28
2023-08-11T07:50:12.969Z,4.18
2023-08-11T07:52:39.884Z,4.63
2023-08-11T07:55:07.592Z,3.75
2023-08-11T07:57:34.769Z,2.53
2023-08-11T08:00:02.079Z,4.17
2023-08-11T08:02:29.218Z,4.60
2023-08-11T08:05:09.491Z,3.73
2023-08-11T08:07:39.440Z,4.70
2023-08-11T08:10:09.787Z,6.70
2023-08-11T08:12:38.235Z,4.88
2023-08-11T08:15:07.795Z,2.30
2023-08-11T08:17:35.254Z,4.38
2023-08-11T08:20:03.303Z,3.58
2023-08-11T08:22:30.339Z,3.22
2023-08-11T08:24:57.948Z,2.27
2023-08-11T08:27:25.689Z,4.57
2023-08-11T08:29:54.617Z,1.80
2023-08-11T08:32:22.354Z,5.72
2023-08-11T08:37:21.173Z,4.68
2023-08-11T08:39:49.000Z,4.13
2023-08-11T08:42:16.498Z,3.22
2023-08-11T08:44:44.132Z,3.13
2023-08-11T08:47:13.756Z,2.50
2023-08-11T08:49:44.451Z,4.80
2023-08-11T08:52:12.229Z,2.65
2023-08-11T08:54:40.963Z,2.03
2023-08-11T08:57:12.351Z,2.65
2023-08-11T08:59:42.009Z,2.05
2023-08-11T09:02:10.807Z,3.83
2023-08-11T09:04:38.521Z,3.20
2023-08-11T09:07:06.325Z,4.57
2023-08-11T09:09:33.867Z,2.63
2023-08-11T09:12:01.162Z,3.83
2023-08-11T09:14:28.698Z,2.28
2023-08-11T09:16:56.419Z,4.78
2023-08-11T09:19:25.281Z,3.47
2023-08-11T09:21:52.710Z,2.22
2023-08-11T09:24:20.273Z,6.32
2023-08-11T09:26:50.687Z,3.60
2023-08-11T09:29:19.400Z,6.10
2023-08-11T09:31:54.492Z,3.90
2023-08-11T09:34:22.964Z,5.10
2023-08-11T09:36:50.643Z,3.50
2023-08-11T09:41:49.890Z,2.28
2023-08-11T09:44:19.513Z,5.03
2023-08-11T09:46:50.745Z,2.60
2023-08-11T09:49:19.110Z,6.70
2023-08-11T09:51:47.440Z,3.83
2023-08-11T09:54:16.395Z,3.38
2023-08-11T09:56:45.079Z,4.75
2023-08-11T09:59:21.972Z,3.53
2023-08-11T10:01:54.436Z,2.90
2023-08-11T10:04:49.450Z,3.28
2023-08-11T10:07:19.924Z,2.42
2023-08-11T10:09:50.381Z,5.03
2023-08-11T10:12:17.748Z,3.97
2023-08-11T10:14:56.803Z,5.82
2023-08-11T10:17:28.555Z,4.95
2023-08-11T10:19:57.088Z,2.90
2023-08-11T10:27:19.377Z,3.78
2023-08-11T10:29:51.992Z,6.53
2023-08-11T10:32:18.916Z,3.78
2023-08-11T10:34:46.209Z,2.40
2023-08-11T10:37:13.096Z,4.07
2023-08-11T10:39:41.284Z,5.83
2023-08-11T10:42:14.568Z,2.63
2023-08-11T10:44:45.462Z,6.75
2023-08-11T10:47:12.424Z,4.88
2023-08-11T10:49:43.224Z,6.25
2023-08-11T10:52:12.599Z,4.25
2023-08-11T10:54:50.066Z,5.15
2023-08-11T10:57:17.375Z,4.28
2023-08-11T10:59:44.579Z,4.03
2023-08-11T11:02:13.411Z,4.10
2023-08-11T11:04:42.737Z,3.92
2023-08-11T11:07:09.860Z,2.50
2023-08-11T11:09:37.669Z,4.82
2023-08-11T11:12:04.998Z,4.72
2023-08-11T11:14:32.264Z,7.72
2023-08-11T11:17:02.442Z,3.15
2023-08-11T11:19:31.306Z,7.40
2023-08-11T11:21:58.406Z,4.60
2023-08-11T11:24:26.456Z,5.65
2023-08-11T11:26:53.627Z,4.90
2023-08-11T11:29:25.505Z,5.57
2023-08-11T11:31:52.586Z,7.55
2023-08-11T11:34:19.898Z,4.68
2023-08-11T11:36:48.103Z,10.80
2023-08-11T11:39:15.892Z,3.45
2023-08-11T11:41:42.814Z,6.97
2023-08-11T11:44:10.060Z,6.28
2023-08-11T11:46:37.530Z,9.43
2023-08-11T11:49:12.917Z,7.30
2023-08-11T11:51:43.386Z,7.55
2023-08-11T11:54:10.683Z,8.38
2023-08-11T11:56:39.763Z,8.48
2023-08-11T11:59:09.653Z,5.90
2023-08-11T12:01:36.714Z,5.75
2023-08-11T12:04:04.527Z,6.85
2023-08-11T12:06:31.693Z,5.00
2023-08-11T12:09:06.108Z,3.63
2023-08-11T12:11:33.865Z,3.58
2023-08-11T12:14:01.938Z,4.90
2023-08-11T12:16:29.798Z,3.85
2023-08-11T12:19:01.742Z,2.05
2023-08-11T12:21:29.663Z,2.08
2023-08-11T12:23:57.463Z,2.13
2023-08-11T12:26:24.416Z,2.67
2023-08-11T12:28:51.603Z,3.63
2023-08-11T12:31:18.490Z,3.25
2023-08-11T12:33:45.776Z,3.42
2023-08-11T12:36:12.732Z,2.20
2023-08-11T12:38:39.976Z,3.88
2023-08-11T12:41:06.870Z,3.92
2023-08-11T12:43:34.071Z,2.88
2023-08-11T12:46:01.161Z,3.47
2023-08-11T12:48:28.380Z,4.32
2023-08-11T12:50:55.322Z,3.35
2023-08-11T12:53:22.544Z,3.15
2023-08-11T12:55:49.557Z,2.75
2023-08-11T12:58:16.814Z,2.88
2023-08-11T13:00:43.770Z,2.30
2023-08-11T13:03:11.198Z,5.75
2023-08-11T13:05:38.505Z,6.95
2023-08-11T13:08:05.862Z,2.97
2023-08-11T13:10:32.880Z,5.57
2023-08-11T13:13:00.057Z,6.25
2023-08-11T13:15:27.014Z,3.53
2023-08-11T13:17:54.287Z,2.78
2023-08-11T13:20:22.122Z,4.35
2023-08-11T13:22:49.639Z,7.40
2023-08-11T13:25:16.629Z,3.33
2023-08-11T13:27:44.223Z,5.75
2023-08-11T13:30:15.270Z,3.75
2023-08-11T13:32:43.503Z,2.95
2023-08-11T13:35:10.774Z,6.13
2023-08-11T13:37:38.300Z,2.03
2023-08-11T13:40:06.755Z,5.75
2023-08-11T13:42:34.054Z,6.50
2023-08-11T13:45:01.672Z,5.65
2023-08-11T13:47:29.056Z,6.90
2023-08-11T13:49:56.043Z,3.90
2023-08-11T13:52:23.306Z,1.83
2023-08-11T13:55:08.484Z,9.38
2023-08-11T13:57:37.578Z,7.55
2023-08-11T14:00:09.021Z,5.68
2023-08-11T14:02:36.357Z,3.00
2023-08-11T14:05:03.557Z,5.18
2023-08-11T14:07:33.550Z,2.20
2023-08-11T14:10:03.076Z,2.97
2023-08-11T14:12:30.328Z,3.03
2023-08-11T14:14:57.290Z,3.88
2023-08-11T14:17:24.603Z,3.13
2023-08-11T14:19:51.603Z,3.78
2023-08-11T14:22:19.385Z,3.72
2023-08-11T14:24:46.332Z,2.67
2023-08-11T14:27:13.522Z,3.10
2023-08-11T14:29:40.463Z,2.40
2023-08-11T14:32:24.073Z,5.43
2023-08-11T14:34:52.148Z,4.85
2023-08-11T14:37:19.407Z,4.97
2023-08-11T14:39:46.759Z,5.28
2023-08-11T14:42:15.093Z,3.70
2023-08-11T14:44:42.445Z,3.50
2023-08-11T14:47:14.530Z,2.53
2023-08-11T14:49:42.822Z,4.55
2023-08-11T14:52:10.706Z,5.55
2023-08-11T14:54:38.492Z,1.98
2023-08-11T14:57:06.650Z,2.75
2023-08-11T14:59:34.269Z,3.15
2023-08-11T15:02:01.517Z,5.05
2023-08-11T15:04:28.501Z,3.95
2023-08-11T15:06:55.700Z,2.05
2023-08-11T15:09:23.232Z,4.72
2023-08-11T15:11:50.859Z,4.10
2023-08-11T15:14:18.104Z,4.82
2023-08-11T15:16:45.633Z,3.63
2023-08-11T15:19:12.628Z,4.10
2023-08-11T15:21:40.808Z,4.13
2023-08-11T15:24:08.525Z,4.13
2023-08-11T15:26:35.861Z,2.72
2023-08-11T15:29:02.855Z,4.95
2023-08-11T15:31:30.203Z,5.20
2023-08-11T15:33:57.188Z,5.43
2023-08-11T15:36:24.761Z,3.42
2023-08-11T15:38:52.245Z,4.28
2023-08-11T15:41:21.092Z,3.80
2023-08-11T15:43:48.454Z,4.88
2023-08-11T15:46:15.799Z,6.25
2023-08-11T15:48:42.856Z,5.43
2023-08-11T15:51:10.867Z,3.70
2023-08-11T15:53:37.997Z,3.80
2023-08-11T15:56:05.240Z,3.92
2023-08-11T15:58:32.168Z,6.75
2023-08-11T16:01:00.509Z,2.58
2023-08-11T16:03:27.681Z,3.80
2023-08-11T16:05:55.187Z,6.63
2023-08-11T16:08:22.078Z,3.17
2023-08-11T16:10:49.432Z,4.53
2023-08-11T16:13:16.306Z,3.92
2023-08-11T16:15:43.501Z,3.45
2023-08-11T16:18:10.949Z,3.38
2023-08-11T16:20:38.351Z,3.97
2023-08-11T16:23:05.805Z,3.88
2023-08-11T16:25:33.097Z,6.28
2023-08-11T16:28:00.612Z,2.22
2023-08-11T16:30:27.992Z,15.27
2023-08-11T16:32:56.495Z,3.90
2023-08-11T16:35:23.958Z,7.78
2023-08-11T16:37:50.949Z,4.35
2023-08-11T16:40:18.169Z,6.20
2023-08-11T16:42:45.175Z,3.50
2023-08-11T16:45:12.403Z,4.25
2023-08-11T16:47:39.409Z,10.50
2023-08-11T16:50:08.277Z,5.82
2023-08-11T16:52:35.237Z,2.45
2023-08-11T16:55:02.478Z,10.02
2023-08-11T16:57:29.379Z,12.50
2023-08-11T16:59:56.614Z,4.88
2023-08-11T17:02:23.537Z,3.75
2023-08-11T17:04:50.895Z,4.65
2023-08-11T17:07:18.676Z,8.68
2023-08-11T17:09:45.904Z,6.70
2023-08-11T17:12:13.165Z,6.43
2023-08-11T17:14:40.908Z,4.63
2023-08-11T17:17:07.882Z,5.40
2023-08-11T17:19:35.802Z,5.00
2023-08-11T17:22:02.792Z,10.40
2023-08-11T17:24:30.078Z,13.15
2023-08-11T17:26:57.131Z,10.65
2023-08-11T17:29:24.358Z,10.38
2023-08-11T17:31:51.275Z,11.57
2023-08-11T17:34:18.469Z,11.88
2023-08-11T17:36:45.329Z,17.85
2023-08-11T17:39:13.265Z,17.10
2023-08-11T17:41:40.802Z,16.63
2023-08-11T17:44:08.037Z,17.17
2023-08-11T17:46:35.037Z,18.90
2023-08-11T17:49:02.399Z,14.30
2023-08-11T17:51:29.632Z,16.08
2023-08-11T17:54:09.016Z,16.13
2023-08-11T17:56:38.083Z,16.98
2023-08-11T17:59:05.943Z,27.73
2023-08-11T18:01:33.271Z,30.00
2023-08-11T18:04:04.348Z,33.92
2023-08-11T18:06:35.073Z,27.55
2023-08-11T18:09:04.854Z,28.02
2023-08-11T18:11:32.134Z,27.00
2023-08-11T18:13:59.286Z,33.38
2023-08-11T18:16:28.103Z,39.72
2023-08-11T18:21:23.188Z,30.60
2023-08-11T18:23:50.499Z,27.52
2023-08-11T18:26:17.964Z,27.08
2023-08-11T18:28:45.356Z,27.13
2023-08-11T18:31:13.180Z,29.55
2023-08-11T18:33:40.580Z,30.40
2023-08-11T18:36:08.228Z,27.77
2023-08-11T18:38:35.462Z,27.02
2023-08-11T18:41:02.452Z,24.92
2023-08-11T18:43:30.887Z,20.92
2023-08-11T18:45:57.867Z,24.58
2023-08-11T18:48:25.252Z,23.92
2023-08-11T18:50:52.525Z,30.35
2023-08-11T18:53:19.803Z,36.20
2023-08-11T18:55:46.789Z,37.25
2023-08-11T18:58:13.991Z,28.83
2023-08-11T19:00:41.036Z,23.92
2023-08-11T19:03:08.549Z,28.35
2023-08-11T19:05:35.644Z,27.60
2023-08-11T19:08:03.244Z,27.02
2023-08-11T19:10:30.253Z,22.60
2023-08-11T19:12:57.847Z,26.52
2023-08-11T19:15:25.025Z,24.30
2023-08-11T19:17:52.484Z,25.77
2023-08-11T19:20:19.573Z,25.10
2023-08-11T19:22:46.830Z,26.02
2023-08-11T19:25:15.039Z,25.63
2023-08-11T19:27:42.320Z,21.48
2023-08-11T19:30:10.541Z,19.30
2023-08-11T19:32:37.779Z,18.98
2023-08-11T19:35:06.150Z,28.17
2023-08-11T19:37:33.365Z,16.38
2023-08-11T19:40:00.283Z,18.50
2023-08-11T19:42:27.644Z,21.15
2023-08-11T19:44:54.656Z,24.77
2023-08-11T19:47:23.771Z,20.38
2023-08-11T19:49:50.803Z,20.17
2023-08-11T19:52:20.548Z,18.80
2023-08-11T19:54:49.642Z,18.55
2023-08-11T19:57:17.146Z,18.33
2023-08-11T19:59:44.115Z,21.70
2023-08-11T20:02:11.793Z,18.60
2023-08-11T20:04:39.422Z,19.17
2023-08-11T20:07:07.101Z,16.83
2023-08-11T20:09:36.232Z,17.15
2023-08-11T20:12:04.447Z,20.30
2023-08-11T20:14:31.856Z,22.67
2023-08-11T20:16:59.115Z,13.93
2023-08-11T20:19:26.214Z,18.02
2023-08-11T20:21:53.701Z,20.05
2023-08-11T20:24:22.226Z,18.83
2023-08-11T20:26:57.040Z,15.05
2023-08-11T20:29:25.128Z,17.10
2023-08-11T20:31:56.093Z,14.85
2023-08-11T20:34:24.088Z,10.98
2023-08-11T20:36:51.900Z,10.95
2023-08-11T20:39:22.928Z,14.80
2023-08-11T20:41:51.122Z,14.60
2023-08-11T20:44:18.265Z,15.00
2023-08-11T20:46:45.463Z,12.13
2023-08-11T20:49:12.428Z,11.80
2023-08-11T20:51:39.634Z,14.70
2023-08-11T20:54:06.590Z,13.00
2023-08-11T20:56:33.867Z,13.05
2023-08-11T20:59:00.925Z,11.60
2023-08-11T21:01:28.242Z,15.68
2023-08-11T21:03:55.201Z,11.48
2023-08-11T21:06:22.641Z,11.80
2023-08-11T21:08:52.009Z,11.55
2023-08-11T21:11:19.206Z,17.08
2023-08-11T21:13:46.081Z,13.75
2023-08-11T21:16:14.853Z,17.98
2023-08-11T21:18:42.546Z,13.45
2023-08-11T21:21:09.812Z,12.48
2023-08-11T21:23:36.783Z,14.32
2023-08-11T21:26:04.343Z,13.85
2023-08-11T21:28:31.237Z,12.70
2023-08-11T21:31:11.656Z,10.85
2023-08-11T21:33:44.087Z,9.98
2023-08-11T21:36:11.619Z,12.00
2023-08-11T21:38:38.501Z,9.13
2023-08-11T21:41:06.121Z,14.98
2023-08-11T21:43:33.043Z,12.73
2023-08-11T21:46:00.202Z,10.80
2023-08-11T21:48:27.139Z,12.02
2023-08-11T21:50:55.362Z,11.57
2023-08-11T21:53:23.886Z,13.73
2023-08-11T21:55:52.084Z,8.80
2023-08-11T21:58:19.189Z,13.98
2023-08-11T22:00:46.428Z,10.00
2023-08-11T22:03:13.475Z,12.93
2023-08-11T22:05:40.813Z,12.32
2023-08-11T22:08:07.712Z,14.23
2023-08-11T22:10:35.069Z,12.48
2023-08-11T22:13:02.044Z,10.10
2023-08-11T22:15:29.342Z,12.93
2023-08-11T22:17:56.239Z,10.32
2023-08-11T22:20:23.691Z,12.38
2023-08-11T22:22:50.576Z,10.07
2023-08-11T22:25:20.404Z,9.18
2023-08-11T22:27:49.490Z,14.50
2023-08-11T22:30:16.910Z,13.13
2023-08-11T22:32:44.058Z,11.60
2023-08-11T22:35:11.827Z,13.23
2023-08-11T22:37:38.907Z,12.73
2023-08-11T22:40:07.393Z,15.32
2023-08-11T22:42:34.356Z,9.93
2023-08-11T22:45:01.599Z,15.73
2023-08-11T22:47:28.616Z,11.10
2023-08-11T22:49:56.845Z,10.45
2023-08-11T22:52:23.819Z,11.98
2023-08-11T22:54:51.407Z,9.60
2023-08-11T22:57:19.246Z,13.23
2023-08-11T22:59:46.644Z,13.63
2023-08-11T23:02:13.605Z,11.55
2023-08-11T23:04:42.081Z,12.38
2023-08-11T23:07:09.502Z,12.10
2023-08-11T23:09:37.016Z,12.23
2023-08-11T23:12:05.673Z,10.20
2023-08-11T23:14:32.900Z,14.95
2023-08-11T23:16:59.827Z,11.73
2023-08-11T23:19:27.073Z,12.60
2023-08-11T23:21:54.047Z,12.32
2023-08-11T23:24:21.342Z,11.07
2023-08-11T23:26:48.410Z,12.38
2023-08-11T23:29:15.620Z,10.95
2023-08-11T23:31:43.592Z,11.27
2023-08-11T23:34:11.098Z,10.27
2023-08-11T23:36:38.069Z,12.73
2023-08-11T23:39:07.242Z,11.27
2023-08-11T23:41:34.238Z,10.23
2023-08-11T23:44:01.937Z,9.73
2023-08-11T23:46:28.888Z,10.65
2023-08-11T23:48:56.173Z,11.02
2023-08-11T23:51:24.124Z,11.90
2023-08-11T23:53:51.534Z,12.50
2023-08-11T23:56:18.455Z,13.27
2023-08-11T23:58:45.698Z,11.25
